Time;durP1;ratioP1;P1;durP2;ratioP2;P2;SDS_P1;SDS_P2;PMS_P1;PMS_P2;Temp;Humidity;BMP_temperature;BMP_pressure;BME280_temperature;BME280_humidity;BME280_pressure;Samples;Min_cycle;Max_cycle;Signal;HPM_P1;HPM_P2
2022/07/19 00:00:09;;;;;;;7.65;4.80;;;;;;;28.23;39.00;101588.94;4967303;28;20085;-80
2022/07/19 00:02:37;;;;;;;5.53;4.32;;;;;;;28.19;38.97;101590.44;4978448;28;20544;-81
2022/07/19 00:05:05;;;;;;;7.07;4.55;;;;;;;28.04;38.95;101573.66;4970242;28;20701;-80
2022/07/19 00:07:32;;;;;;;9.70;4.47;;;;;;;28.05;39.28;101580.75;4970867;28;20405;-80
2022/07/19 00:09:59;;;;;;;8.55;4.63;;;;;;;28.00;39.31;101572.44;4970288;28;20066;-80
2022/07/19 00:12:25;;;;;;;7.70;5.30;;;;;;;28.06;39.46;101577.81;4970345;28;20058;-81
2022/07/19 00:14:52;;;;;;;5.43;4.55;;;;;;;28.13;39.18;101577.72;4970037;28;20474;-80
2022/07/19 00:17:19;;;;;;;7.78;5.32;;;;;;;28.11;39.23;101590.78;4970480;28;20077;-79
2022/07/19 00:19:46;;;;;;;10.20;5.10;;;;;;;27.98;39.65;101571.81;4970527;28;20046;-80
2022/07/19 00:22:13;;;;;;;7.28;4.53;;;;;;;27.84;39.65;101546.59;4970732;28;20147;-80
2022/07/19 00:24:40;;;;;;;8.23;4.53;;;;;;;27.19;39.46;101447.03;4987155;28;20057;-80
2022/07/19 00:27:07;;;;;;;9.07;5.43;;;;;;;28.05;39.25;101586.22;4970396;28;20268;-79
2022/07/19 00:29:33;;;;;;;6.00;5.22;;;;;;;28.04;39.42;101590.03;4969019;28;20514;-81
2022/07/19 00:32:00;;;;;;;8.48;4.72;;;;;;;27.56;39.67;101522.56;4969986;28;20057;-81
2022/07/19 00:34:27;;;;;;;7.65;5.60;;;;;;;27.85;39.92;101564.63;4970459;28;20049;-80
2022/07/19 00:36:54;;;;;;;8.50;5.15;;;;;;;27.91;39.87;101585.53;4970288;28;20046;-80
2022/07/19 00:39:20;;;;;;;5.97;5.00;;;;;;;27.84;40.10;101580.19;4969641;28;20058;-81
2022/07/19 00:41:47;;;;;;;4.80;4.32;;;;;;;27.64;39.97;101542.16;4969920;28;20054;-81
2022/07/19 00:44:14;;;;;;;7.15;4.50;;;;;;;27.71;39.99;101561.19;4969780;28;20053;-79
2022/07/19 00:46:41;;;;;;;7.93;4.65;;;;;;;27.57;39.85;101543.31;4969890;28;20093;-80
2022/07/19 00:49:07;;;;;;;11.48;5.20;;;;;;;27.71;40.24;101580.28;4969698;28;20701;-81
2022/07/19 00:51:39;;;;;;;9.30;4.93;;;;;;;27.52;40.34;101554.06;4969920;28;20047;-81
2022/07/19 00:54:08;;;;;;;5.70;3.90;;;;;;;27.72;39.99;101565.59;4969781;28;20053;-82
2022/07/19 00:56:36;;;;;;;7.25;4.35;;;;;;;27.73;39.92;101589.09;4970038;28;20046;-81
2022/07/19 00:59:04;;;;;;;8.30;4.25;;;;;;;27.80;39.72;101587.13;4969738;28;20046;-80
2022/07/19 01:01:32;;;;;;;4.95;4.18;;;;;;;27.63;39.98;101553.31;4969604;28;20054;-80
2022/07/19 01:04:00;;;;;;;9.07;4.30;;;;;;;27.78;40.27;101585.69;4969815;28;20583;-80
2022/07/19 01:06:27;;;;;;;6.15;4.85;;;;;;;27.77;39.93;101582.13;4969953;28;20058;-81
2022/07/19 01:08:54;;;;;;;8.82;4.75;;;;;;;27.61;40.06;101536.34;4969882;28;20476;-81
2022/07/19 01:11:21;;;;;;;6.90;3.78;;;;;;;27.86;40.02;101578.03;4969983;28;20050;-80
2022/07/19 01:13:48;;;;;;;7.22;4.40;;;;;;;27.70;40.25;101578.63;4987500;28;20050;-81
2022/07/19 01:16:16;;;;;;;9.90;4.50;;;;;;;27.56;40.77;101566.19;4969969;28;20078;-80
2022/07/19 01:18:43;;;;;;;6.97;4.95;;;;;;;27.31;40.43;101533.50;4970641;28;20058;-81
2022/07/19 01:21:24;;;;;;;5.60;4.47;;;;;;;27.51;40.58;101569.59;4971902;28;20533;-80
2022/07/19 01:23:50;;;;;;;6.65;4.57;;;;;;;27.67;40.56;101569.00;4971252;28;20517;-81
2022/07/19 01:26:18;;;;;;;6.10;4.43;;;;;;;27.60;40.49;101565.53;4970944;28;20437;-80
2022/07/19 01:28:45;;;;;;;6.00;4.35;;;;;;;27.65;40.26;101564.84;4971083;28;20455;-80
2022/07/19 01:31:12;;;;;;;5.05;3.97;;;;;;;27.60;40.11;101540.97;4988619;28;20509;-81
2022/07/19 01:33:44;;;;;;;9.20;4.18;;;;;;;27.50;40.43;101535.19;4987228;28;20142;-80
2022/07/19 01:36:11;;;;;;;9.55;4.13;;;;;;;27.57;40.09;101546.03;4970031;28;20531;-80
2022/07/19 01:38:39;;;;;;;9.27;4.63;;;;;;;26.98;40.17;101461.91;4969684;28;20572;-80
2022/07/19 01:41:06;;;;;;;4.63;3.88;;;;;;;27.64;40.04;101563.16;4975394;28;20097;-80
2022/07/19 01:43:34;;;;;;;5.40;4.90;;;;;;;27.51;40.37;101552.41;4978188;28;20307;-79
2022/07/19 01:46:01;;;;;;;10.50;4.40;;;;;;;27.12;40.67;101516.28;4973584;28;20508;-80
2022/07/19 01:48:28;;;;;;;8.32;5.10;;;;;;;27.40;40.66;101568.44;4972841;28;20046;-80
2022/07/19 01:50:55;;;;;;;9.23;4.72;;;;;;;27.22;40.81;101543.88;4972912;28;20053;-80
2022/07/19 01:53:22;;;;;;;6.10;4.60;;;;;;;27.27;40.89;101568.56;4990436;28;20052;-80
2022/07/19 01:55:48;;;;;;;7.60;4.90;;;;;;;27.25;40.73;101570.69;4972583;28;20449;-80
2022/07/19 01:58:15;;;;;;;5.53;4.40;;;;;;;27.24;40.80;101563.56;4990525;28;20053;-80
2022/07/19 02:00:42;;;;;;;5.45;4.57;;;;;;;27.23;40.80;101570.06;4973202;28;20212;-80
2022/07/19 02:03:08;;;;;;;4.75;3.55;;;;;;;27.19;40.73;101556.06;4990411;28;20050;-80
2022/07/19 02:05:35;;;;;;;12.85;5.07;;;;;;;27.08;40.62;101538.50;4972392;28;20406;-82
2022/07/19 02:08:02;;;;;;;7.03;4.30;;;;;;;27.06;40.45;101532.47;4973397;28;20391;-80
2022/07/19 02:10:29;;;;;;;5.95;3.90;;;;;;;27.15;40.95;101553.97;4973086;28;20104;-80
2022/07/19 02:12:56;;;;;;;5.75;3.88;;;;;;;26.91;40.97;101531.97;4973235;28;20078;-80
2022/07/19 02:15:23;;;;;;;4.70;4.20;;;;;;;26.92;40.85;101533.66;4972773;28;20058;-80
2022/07/19 02:17:49;;;;;;;4.50;4.10;;;;;;;27.12;41.01;101565.34;4989836;28;20062;-81
2022/07/19 02:20:16;;;;;;;4.57;4.13;;;;;;;25.94;40.81;101384.41;4972389;28;20113;-78
2022/07/19 02:22:43;;;;;;;7.03;4.13;;;;;;;26.62;41.17;101507.03;4972607;28;20128;-80
2022/07/19 02:25:10;;;;;;;10.05;5.40;;;;;;;26.74;41.43;101530.84;4972667;28;20054;-80
2022/07/19 02:27:37;;;;;;;5.80;4.00;;;;;;;26.50;41.39;101488.88;4972333;28;20579;-80
2022/07/19 02:30:04;;;;;;;5.10;4.55;;;;;;;26.63;41.64;101510.63;4972660;28;20506;-80
2022/07/19 02:32:31;;;;;;;9.75;5.22;;;;;;;26.86;41.66;101556.31;4972781;28;20062;-80
2022/07/19 02:34:58;;;;;;;5.97;4.68;;;;;;;26.63;41.63;101514.16;4989513;28;20130;-80
2022/07/19 02:37:24;;;;;;;8.30;5.10;;;;;;;26.31;41.77;101444.41;4972302;28;20359;-79
2022/07/19 02:39:51;;;;;;;6.28;4.05;;;;;;;26.95;41.92;101555.00;4972155;28;20061;-80
2022/07/19 02:42:18;;;;;;;9.05;5.10;;;;;;;26.80;42.18;101543.59;4972206;28;20042;-80
2022/07/19 02:44:44;;;;;;;9.27;4.30;;;;;;;26.87;42.21;101568.91;4972423;28;20070;-80
2022/07/19 02:47:11;;;;;;;12.65;5.13;;;;;;;26.68;42.27;101532.56;4972229;28;20474;-80
2022/07/19 02:49:37;;;;;;;10.23;4.60;;;;;;;26.40;42.31;101494.81;4988984;28;20058;-80
2022/07/19 02:52:04;;;;;;;8.15;5.10;;;;;;;26.44;42.34;101504.22;4971108;28;20058;-80
2022/07/19 02:54:31;;;;;;;6.75;4.68;;;;;;;25.64;42.84;101390.41;4971964;28;20058;-80
2022/07/19 02:56:57;;;;;;;11.82;4.88;;;;;;;25.88;42.68;101436.97;4972184;28;20060;-79
2022/07/19 02:59:24;;;;;;;8.65;5.40;;;;;;;26.40;42.73;101522.03;4971710;28;20494;-79
2022/07/19 03:01:51;;;;;;;9.52;5.32;;;;;;;26.62;42.65;101560.66;4971716;28;20054;-80
2022/07/19 03:04:18;;;;;;;9.75;4.97;;;;;;;26.59;42.53;101545.59;4972109;28;20070;-80
2022/07/19 03:06:45;;;;;;;5.30;4.13;;;;;;;26.71;42.37;101556.63;4988885;28;20074;-78
2022/07/19 03:09:11;;;;;;;7.97;5.13;;;;;;;26.58;42.30;101541.22;4972159;28;20058;-79
2022/07/19 03:11:38;;;;;;;8.80;5.10;;;;;;;26.55;42.43;101549.81;4971519;28;20070;-80
2022/07/19 03:14:05;;;;;;;13.85;5.25;;;;;;;26.11;42.36;101482.66;4989153;28;20391;-80
2022/07/19 03:16:32;;;;;;;9.95;5.97;;;;;;;26.66;42.57;101578.25;4988988;28;20050;-80
2022/07/19 03:18:59;;;;;;;14.82;5.88;;;;;;;26.47;42.93;101558.22;4971567;28;20108;-81
2022/07/19 03:21:25;;;;;;;9.48;5.38;;;;;;;26.56;42.93;101580.63;4971875;28;20051;-80
2022/07/19 03:23:52;;;;;;;10.15;5.18;;;;;;;26.67;42.93;101601.69;4971445;28;20081;-80
2022/07/19 03:26:19;;;;;;;12.65;5.82;;;;;;;26.55;43.11;101590.66;4971532;28;20113;-81
2022/07/19 03:28:45;;;;;;;7.18;5.18;;;;;;;26.55;43.28;101596.09;4988680;28;20057;-79
2022/07/19 03:31:12;;;;;;;7.07;5.97;;;;;;;26.53;43.69;101606.41;4971333;28;20052;-80
2022/07/19 03:33:39;;;;;;;12.25;6.03;;;;;;;26.49;43.52;101599.69;4972284;28;20050;-80
2022/07/19 03:36:06;;;;;;;9.18;5.47;;;;;;;26.26;43.46;101567.53;4972800;28;20101;-81
2022/07/19 03:38:35;;;;;;;11.75;4.70;;;;;;;26.41;43.89;101599.94;4990662;28;20296;-79
2022/07/19 03:41:02;;;;;;;7.35;5.57;;;;;;;26.47;43.55;101607.22;4974538;28;20058;-80
2022/07/19 03:43:29;;;;;;;10.20;6.28;;;;;;;26.35;43.72;101606.25;4976830;28;20057;-80
2022/07/19 03:45:55;;;;;;;15.32;6.03;;;;;;;26.27;44.22;101611.94;4976025;28;20057;-79
2022/07/19 03:48:22;;;;;;;7.80;5.78;;;;;;;26.23;43.90;101606.91;4975262;28;20565;-81
2022/07/19 03:50:49;;;;;;;9.70;5.53;;;;;;;25.98;43.73;101560.56;4975089;28;20057;-80
2022/07/19 03:53:15;;;;;;;12.45;6.20;;;;;;;26.11;44.26;101622.25;4975245;28;20054;-80
2022/07/19 03:55:42;;;;;;;14.05;5.82;;;;;;;26.02;44.38;101609.94;4973528;28;20042;-79
2022/07/19 03:58:09;;;;;;;16.88;6.13;;;;;;;25.97;44.69;101621.47;4980070;28;20066;-78
2022/07/19 04:00:36;;;;;;;8.18;5.32;;;;;;;25.74;44.78;101581.13;4995740;28;20065;-80
2022/07/19 04:03:02;;;;;;;11.38;6.13;;;;;;;25.84;45.09;101626.09;4971687;28;20077;-79
2022/07/19 04:05:29;;;;;;;8.57;5.82;;;;;;;25.78;45.38;101625.88;4971075;28;20144;-80
2022/07/19 04:07:56;;;;;;;11.95;5.95;;;;;;;25.58;45.27;101597.88;4970998;28;20136;-79
2022/07/19 04:10:23;;;;;;;8.52;5.70;;;;;;;25.48;45.17;101570.31;4970752;28;20050;-79
2022/07/19 04:12:50;;;;;;;10.70;6.43;;;;;;;25.70;45.34;101617.94;4987767;28;20054;-80
2022/07/19 04:15:16;;;;;;;11.93;5.75;;;;;;;25.59;45.25;101603.13;4970561;28;20046;-79
2022/07/19 04:17:43;;;;;;;9.48;5.90;;;;;;;25.77;44.96;101616.03;4970603;28;20490;-79
2022/07/19 04:20:10;;;;;;;8.88;5.80;;;;;;;25.97;45.04;101645.09;4970616;28;20050;-79
2022/07/19 04:22:37;;;;;;;8.98;6.40;;;;;;;25.88;45.08;101649.97;4970415;28;20074;-80
2022/07/19 04:25:06;;;;;;;16.50;6.53;;;;;;;25.65;45.15;101604.16;4970621;28;20054;-79
2022/07/19 04:27:32;;;;;;;12.38;6.97;;;;;;;25.85;45.35;101638.63;4970307;28;20277;-79
2022/07/19 04:29:59;;;;;;;14.70;6.38;;;;;;;25.80;45.24;101631.09;4987415;28;20058;-79
2022/07/19 04:32:28;;;;;;;9.98;6.78;;;;;;;25.88;45.26;101635.53;4970490;28;20114;-79
2022/07/19 04:34:55;;;;;;;12.27;6.20;;;;;;;25.99;45.39;101660.16;4970360;28;20523;-80
2022/07/19 04:37:22;;;;;;;13.63;6.95;;;;;;;25.72;45.41;101625.91;4970376;28;20062;-79
2022/07/19 04:39:49;;;;;;;13.98;6.70;;;;;;;25.87;45.79;101650.16;4970222;28;20577;-80
2022/07/19 04:42:16;;;;;;;12.10;6.10;;;;;;;26.04;45.51;101664.13;4987967;28;20132;-79
2022/07/19 04:44:43;;;;;;;14.35;6.45;;;;;;;25.92;45.51;101645.75;4985214;28;20108;-81
2022/07/19 04:47:10;;;;;;;11.63;7.30;;;;;;;25.97;45.55;101662.28;4954586;28;20051;-81
2022/07/19 04:49:37;;;;;;;11.52;6.43;;;;;;;25.99;45.99;101678.38;4971259;28;20141;-86
2022/07/19 04:52:05;;;;;;;11.95;6.40;;;;;;;26.05;45.30;101653.06;4949782;28;20055;-81
2022/07/19 04:54:32;;;;;;;9.45;6.85;;;;;;;26.08;45.46;101663.50;4966026;28;20062;-80
2022/07/19 04:56:59;;;;;;;7.38;5.93;;;;;;;26.05;45.59;101653.06;4960355;28;20051;-80
2022/07/19 04:59:26;;;;;;;11.95;6.95;;;;;;;26.09;45.48;101664.34;4948212;28;20053;-80
2022/07/19 05:01:53;;;;;;;12.80;6.55;;;;;;;26.11;45.66;101670.41;4948782;28;20047;-79
2022/07/19 05:04:20;;;;;;;10.68;5.82;;;;;;;26.22;44.74;101676.03;4949102;28;20385;-80
2022/07/19 05:06:47;;;;;;;9.43;5.93;;;;;;;25.58;45.73;101589.72;4948395;28;20170;-79
2022/07/19 05:09:13;;;;;;;14.73;6.38;;;;;;;26.14;45.87;101667.25;4945279;28;20047;-80
2022/07/19 05:11:44;;;;;;;10.25;6.65;;;;;;;26.15;45.14;101655.31;4930221;28;20058;-78
2022/07/19 05:14:11;;;;;;;10.02;6.35;;;;;;;26.31;44.96;101673.06;4930189;28;20052;-79
2022/07/19 05:16:38;;;;;;;10.00;5.82;;;;;;;26.36;45.50;101675.97;4933335;29;20043;-79
2022/07/19 05:19:05;;;;;;;12.80;6.63;;;;;;;25.72;45.52;101560.63;4933716;29;20051;-80
2022/07/19 05:21:31;;;;;;;9.68;6.05;;;;;;;26.38;46.09;101671.97;4950713;28;20055;-81
2022/07/19 05:23:58;;;;;;;11.52;6.28;;;;;;;26.27;45.76;101655.50;4933236;29;20063;-80
2022/07/19 05:26:25;;;;;;;13.50;6.32;;;;;;;26.35;46.09;101647.09;4947074;28;20047;-79
2022/07/19 05:28:51;;;;;;;10.13;6.28;;;;;;;26.54;45.51;101661.69;4952378;28;20186;-81
2022/07/19 05:31:18;;;;;;;9.10;6.10;;;;;;;26.67;45.50;101682.56;4953061;28;20480;-81
2022/07/19 05:33:45;;;;;;;11.48;5.60;;;;;;;26.11;44.68;101586.06;4969453;28;20416;-79
2022/07/19 05:36:12;;;;;;;9.70;5.53;;;;;;;26.76;44.64;101675.81;4952835;28;20055;-80
2022/07/19 05:38:39;;;;;;;6.57;5.60;;;;;;;26.67;44.07;101668.94;4964899;28;20063;-80
2022/07/19 05:41:10;;;;;;;9.80;5.88;;;;;;;26.78;44.00;101679.16;4980173;28;20054;-80
2022/07/19 05:43:38;;;;;;;10.15;5.20;;;;;;;26.79;44.13;101676.22;4954010;28;20337;-78
2022/07/19 05:46:05;;;;;;;5.55;5.00;;;;;;;26.84;43.40;101681.00;4952571;28;20350;-78
2022/07/19 05:48:32;;;;;;;8.45;4.90;;;;;;;26.77;43.20;101661.13;4951744;28;20050;-79
2022/07/19 05:50:59;;;;;;;7.13;5.45;;;;;;;26.89;42.97;101664.00;4942852;29;20416;-79
2022/07/19 05:53:26;;;;;;;9.20;5.57;;;;;;;27.02;41.74;101669.38;4943403;28;20047;-79
2022/07/19 05:55:54;;;;;;;8.35;5.10;;;;;;;26.70;42.32;101617.63;4961833;28;20307;-76
2022/07/19 05:58:22;;;;;;;9.15;4.97;;;;;;;26.73;42.52;101611.72;4933365;29;20059;-80
2022/07/19 06:03:35;;;;;;;6.05;4.75;;;;;;;27.12;42.43;101658.00;4950186;28;20511;-79
2022/07/19 06:06:02;;;;;;;6.63;5.35;;;;;;;27.30;42.25;101666.25;4950179;29;20082;-79
2022/07/19 06:08:28;;;;;;;7.18;5.28;;;;;;;27.20;42.18;101644.94;4932452;28;20462;-78
2022/07/19 06:10:56;;;;;;;9.15;5.07;;;;;;;27.15;41.56;101638.47;4934170;28;20059;-78
2022/07/19 06:13:23;;;;;;;13.68;5.40;;;;;;;27.41;42.15;101662.81;4955472;28;20473;-81
2022/07/19 06:15:50;;;;;;;8.15;6.05;;;;;;;27.43;42.38;101649.81;4933042;29;20194;-77
2022/07/19 06:18:18;;;;;;;10.10;6.18;;;;;;;27.53;41.65;101643.00;4932499;29;20471;-82
2022/07/19 06:20:46;;;;;;;6.72;5.50;;;;;;;27.77;40.95;101661.22;4949490;29;20062;-80
2022/07/19 06:23:13;;;;;;;7.90;5.10;;;;;;;27.73;40.84;101621.81;4947778;29;20400;-80
2022/07/19 06:25:46;;;;;;;9.23;5.43;;;;;;;28.08;40.37;101656.72;4932941;28;20051;-80
2022/07/19 06:28:12;;;;;;;6.15;4.85;;;;;;;28.07;39.96;101644.16;4931903;29;20141;-81
2022/07/19 06:30:39;;;;;;;13.52;5.38;;;;;;;28.06;39.75;101640.59;4931765;29;20516;-81
2022/07/19 06:33:06;;;;;;;7.95;5.00;;;;;;;27.36;39.33;101511.88;4932504;29;20142;-79
2022/07/19 06:35:33;;;;;;;9.55;5.30;;;;;;;28.28;38.76;101656.50;4932649;28;20055;-79
2022/07/19 06:38:00;;;;;;;7.07;5.13;;;;;;;28.38;38.05;101651.31;4932469;28;20152;-79
2022/07/19 06:40:27;;;;;;;8.07;5.55;;;;;;;28.42;37.91;101655.25;4960165;28;20061;-79
2022/07/19 06:42:54;;;;;;;7.97;4.55;;;;;;;28.60;37.90;101659.91;4988762;28;20050;-80
2022/07/19 06:45:20;;;;;;;14.18;5.75;;;;;;;28.64;37.54;101662.97;4988257;28;20046;-78
2022/07/19 06:47:48;;;;;;;7.85;5.07;;;;;;;28.65;37.59;101635.44;4971656;28;20054;-79
2022/07/19 06:50:14;;;;;;;7.95;4.85;;;;;;;28.82;38.13;101667.59;4970918;28;20065;-79
2022/07/19 06:53:01;;;;;;;6.18;3.90;;;;;;;28.62;36.66;101627.72;4969070;28;20129;-80
2022/07/19 06:55:28;;;;;;;7.90;4.50;;;;;;;28.40;36.59;101600.06;4951000;28;20055;-79
2022/07/19 06:57:54;;;;;;;5.03;4.00;;;;;;;28.82;36.13;101645.72;4967912;28;20129;-81
2022/07/19 07:00:21;;;;;;;9.57;4.22;;;;;;;28.91;35.25;101638.84;4966103;28;20062;-81
2022/07/19 07:02:48;;;;;;;13.00;4.20;;;;;;;29.12;34.98;101662.94;4948932;28;20055;-80
2022/07/19 07:05:15;;;;;;;11.48;4.68;;;;;;;28.26;34.57;101508.47;4935005;28;20078;-80
2022/07/19 07:07:42;;;;;;;4.88;4.45;;;;;;;29.26;34.27;101660.00;4951031;28;20565;-80
2022/07/19 07:10:10;;;;;;;6.80;3.83;;;;;;;29.17;34.28;101637.63;4951276;28;20117;-81
2022/07/19 07:12:37;;;;;;;6.15;4.22;;;;;;;28.95;35.18;101588.94;4951232;28;20117;-81
2022/07/19 07:15:05;;;;;;;6.55;4.43;;;;;;;29.01;34.41;101587.19;4951868;28;20059;-79
2022/07/19 07:17:33;;;;;;;15.02;5.05;;;;;;;29.52;32.86;101655.97;4949116;28;20062;-79
2022/07/19 07:19:59;;;;;;;7.35;3.92;;;;;;;29.46;33.48;101630.38;4967538;28;20062;-80
2022/07/19 07:22:33;;;;;;;8.05;4.43;;;;;;;29.71;32.77;101653.97;4967970;28;20043;-82
2022/07/19 07:25:00;;;;;;;6.40;4.50;;;;;;;29.76;32.64;101656.81;4935291;28;20256;-83
2022/07/19 07:27:26;;;;;;;3.33;3.13;;;;;;;29.30;31.87;101565.47;4968402;28;20050;-81
2022/07/19 07:29:54;;;;;;;5.85;3.40;;;;;;;29.35;31.65;101568.34;4968080;28;20059;-80
2022/07/19 07:32:21;;;;;;;3.35;2.83;;;;;;;29.94;30.96;101650.38;4951818;28;20047;-81
2022/07/19 07:34:48;;;;;;;7.50;3.88;;;;;;;29.81;30.90;101622.22;4969705;28;20558;-79
2022/07/19 07:37:14;;;;;;;7.40;3.28;;;;;;;29.61;30.73;101545.09;4953029;28;20047;-81
2022/07/19 07:39:41;;;;;;;8.82;3.78;;;;;;;30.31;30.59;101648.19;4964512;28;20066;-82
2022/07/19 07:42:07;;;;;;;7.97;3.88;;;;;;;29.86;30.84;101569.47;4994654;28;20050;-81
2022/07/19 07:44:39;;;;;;;4.70;3.38;;;;;;;29.87;29.36;101571.13;4989820;28;20219;-81
2022/07/19 07:47:08;;;;;;;5.85;3.30;;;;;;;29.79;29.53;101549.63;4987924;28;20077;-79
2022/07/19 07:49:37;;;;;;;8.18;3.63;;;;;;;30.12;29.69;101583.69;4987962;28;20454;-81
2022/07/19 07:52:04;;;;;;;6.78;3.45;;;;;;;29.57;29.88;101494.69;4987256;28;20042;-79
2022/07/19 07:54:32;;;;;;;6.78;3.47;;;;;;;30.50;29.32;101635.13;4970119;28;20061;-82
2022/07/19 07:56:59;;;;;;;9.45;3.70;;;;;;;30.65;29.15;101642.81;4970417;28;20141;-80
2022/07/19 07:59:26;;;;;;;7.65;3.20;;;;;;;30.67;28.93;101646.13;4970593;28;20053;-81
2022/07/19 08:01:53;;;;;;;9.52;3.40;;;;;;;29.84;28.79;101505.94;4970157;28;20060;-80
2022/07/19 08:04:25;;;;;;;7.55;3.53;;;;;;;30.76;28.40;101632.88;4971252;28;20054;-82
2022/07/19 08:06:54;;;;;;;9.50;3.47;;;;;;;30.83;28.80;101636.31;4987592;28;20054;-81
2022/07/19 08:09:23;;;;;;;10.88;3.88;;;;;;;30.97;29.40;101634.06;4970396;28;20077;-81
2022/07/19 08:11:52;;;;;;;;;;;;;;;31.06;28.22;101638.91;4972159;28;20058;-80
2022/07/19 08:14:19;;;;;;;9.18;3.60;;;;;;;30.73;27.92;101578.53;4972451;28;19922;-79
2022/07/19 08:17:07;;;;;;;10.65;3.25;;;;;;;31.16;27.27;101643.72;4972449;28;20182;-81
2022/07/19 08:19:35;;;;;;;3.38;3.08;;;;;;;31.15;27.73;101631.09;4972679;28;20077;-79
2022/07/19 08:22:03;;;;;;;4.47;3.50;;;;;;;31.21;27.88;101627.34;4972480;28;20061;-78
2022/07/19 08:24:33;;;;;;;5.03;3.08;;;;;;;30.58;27.93;101505.13;4970512;28;20369;-81
2022/07/19 08:26:59;;;;;;;5.50;3.80;;;;;;;31.23;27.79;101605.16;4970173;28;20058;-79
2022/07/19 08:29:26;;;;;;;7.05;3.75;;;;;;;31.48;28.38;101637.66;4987043;28;20169;-81
2022/07/19 08:32:00;;;;;;;11.07;3.42;;;;;;;31.81;26.66;101638.72;4970030;28;20065;-81
2022/07/19 08:34:27;;;;;;;4.38;2.95;;;;;;;31.77;26.28;101634.78;4970192;28;20058;-79
2022/07/19 08:36:56;;;;;;;5.43;3.28;;;;;;;31.06;26.25;101528.41;4969815;28;20532;-80
2022/07/19 08:39:32;;;;;;;3.97;3.13;;;;;;;31.56;26.61;101600.75;4986882;28;20042;-81
2022/07/19 08:42:00;;;;;;;8.68;3.38;;;;;;;31.80;26.99;101623.31;4969777;28;20066;-81
2022/07/19 08:44:29;;;;;;;5.38;3.20;;;;;;;31.93;26.25;101625.69;4969818;28;20077;-79
2022/07/19 08:46:55;;;;;;;3.63;2.95;;;;;;;31.58;26.54;101574.72;4986799;28;20077;-82
2022/07/19 08:49:26;;;;;;;6.05;3.17;;;;;;;31.89;26.61;101610.81;4970102;28;20101;-80
2022/07/19 08:51:53;;;;;;;7.50;3.50;;;;;;;32.20;25.70;101625.78;4969495;28;20047;-79
2022/07/19 08:54:21;;;;;;;6.40;2.80;;;;;;;31.76;25.50;101531.59;4970250;28;20058;-81
2022/07/19 08:59:34;;;;;;;32.17;5.93;;;;;;;31.60;25.96;101516.81;4986960;28;20140;-82
2022/07/19 09:02:01;;;;;;;5.30;2.88;;;;;;;32.00;25.75;101543.97;4965744;28;20506;-82
2022/07/19 09:04:31;;;;;;;6.57;3.45;;;;;;;31.24;25.94;101425.78;4966461;28;20058;-81
2022/07/19 09:06:58;;;;;;;6.93;3.20;;;;;;;32.38;25.50;101586.13;4950251;28;20071;-82
2022/07/19 09:09:27;;;;;;;4.20;3.00;;;;;;;31.64;26.30;101480.38;4966622;28;20134;-82
2022/07/19 09:11:58;;;;;;;6.10;2.80;;;;;;;32.62;25.54;101622.41;4966493;28;20256;-81
2022/07/19 09:14:36;;;;;;;3.92;3.55;;;;;;;31.55;25.40;101432.53;4966002;28;20051;-83
2022/07/19 09:17:17;;;;;;;4.30;2.83;;;;;;;32.82;25.11;101627.28;4966389;28;20078;-82
2022/07/19 09:19:46;;;;;;;4.65;3.30;;;;;;;32.29;25.42;101551.97;4965978;28;20422;-82
2022/07/19 09:22:14;;;;;;;11.75;3.65;;;;;;;32.35;24.96;101578.41;4966142;28;20054;-80
2022/07/19 09:24:50;;;;;;;5.97;3.40;;;;;;;32.44;25.51;101596.09;4966281;28;20058;-81
2022/07/19 09:27:19;;;;;;;3.95;3.00;;;;;;;32.40;25.43;101578.47;4965934;28;20059;-83
2022/07/19 09:29:52;;;;;;;4.82;3.17;;;;;;;32.80;25.30;101623.97;4965938;28;20565;-82
2022/07/19 09:32:21;;;;;;;10.65;3.70;;;;;;;33.07;24.69;101609.38;4966191;28;20055;-82
2022/07/19 09:34:53;;;;;;;5.75;2.97;;;;;;;33.13;24.88;101614.63;4967098;28;20411;-80
2022/07/19 09:37:25;;;;;;;3.80;3.38;;;;;;;32.35;24.75;101476.75;4967252;28;20058;-80
2022/07/19 09:39:55;;;;;;;4.22;3.28;;;;;;;31.94;25.35;101415.91;4967993;28;20047;-83
2022/07/19 09:42:37;;;;;;;5.18;3.22;;;;;;;33.14;24.66;101607.22;4967348;28;20054;-80
2022/07/19 09:45:07;;;;;;;7.05;3.60;;;;;;;33.05;25.06;101582.13;4966336;28;20420;-80
2022/07/19 09:47:39;;;;;;;6.97;3.85;;;;;;;32.19;25.36;101425.50;4965447;28;20081;-80
2022/07/19 09:50:09;;;;;;;3.78;3.20;;;;;;;33.28;25.16;101572.66;4965878;28;20138;-80
2022/07/19 09:52:36;;;;;;;4.93;3.40;;;;;;;32.76;24.48;101488.09;4939246;28;20651;-80
2022/07/19 09:55:10;;;;;;;4.15;3.55;;;;;;;33.66;24.79;101602.91;4965695;28;20109;-81
2022/07/19 09:57:49;;;;;;;7.95;3.50;;;;;;;32.75;24.30;101436.97;4942975;28;20451;-81
2022/07/19 10:00:21;;;;;;;8.40;3.65;;;;;;;33.52;24.30;101526.28;4927486;29;20503;-79
2022/07/19 10:02:56;;;;;;;7.25;3.60;;;;;;;33.67;24.54;101535.72;4928221;29;20075;-81
2022/07/19 10:05:24;;;;;;;7.47;3.70;;;;;;;33.99;24.66;101574.97;4928194;29;20060;-80
2022/07/19 10:07:51;;;;;;;4.07;3.33;;;;;;;33.45;24.52;101469.81;4934900;29;20356;-79
2022/07/19 10:10:20;;;;;;;3.80;3.35;;;;;;;34.40;24.17;101591.63;4931482;29;20059;-81
2022/07/19 10:12:48;;;;;;;4.90;3.35;;;;;;;34.17;24.05;101526.81;4931372;29;20052;-80
2022/07/19 10:15:17;;;;;;;5.38;3.75;;;;;;;34.15;23.59;101509.72;4932482;29;20412;-80
2022/07/19 10:18:01;;;;;;;6.85;3.50;;;;;;;34.58;23.74;101570.16;4933044;29;20299;-80
2022/07/19 10:20:29;;;;;;;4.22;3.28;;;;;;;34.80;23.86;101594.72;4941182;28;20434;-82
2022/07/19 10:23:01;;;;;;;7.05;2.85;;;;;;;34.48;23.94;101543.41;4930327;29;20479;-81
2022/07/19 10:25:45;;;;;;;8.45;3.22;;;;;;;34.90;23.43;101584.50;4931728;29;20297;-80
2022/07/19 10:28:33;;;;;;;3.58;3.22;;;;;;;35.23;23.62;101582.31;4930455;29;20044;-80
2022/07/19 10:31:28;;;;;;;5.63;3.95;;;;;;;34.41;23.24;101433.41;4931931;29;20357;-81
2022/07/19 10:34:22;;;;;;;4.10;3.03;;;;;;;35.46;23.06;101563.47;4930831;29;20067;-80
2022/07/19 10:36:51;;;;;;;10.57;3.55;;;;;;;35.53;23.18;101577.81;4930112;29;20062;-80
2022/07/19 10:39:17;;;;;;;6.85;3.33;;;;;;;35.64;23.31;101581.41;4939972;28;20061;-81
2022/07/19 10:42:15;;;;;;;5.50;3.25;;;;;;;35.82;23.74;101582.72;4968904;28;20081;-80
2022/07/19 10:44:57;;;;;;;5.22;3.13;;;;;;;35.78;22.82;101576.09;4969533;28;20085;-81
2022/07/19 10:47:26;;;;;;;6.50;3.42;;;;;;;36.02;23.05;101581.78;4969501;28;20057;-82
2022/07/19 10:50:00;;;;;;;7.00;3.55;;;;;;;35.88;22.68;101557.56;4969550;28;20502;-81
2022/07/19 10:52:34;;;;;;;8.10;3.65;;;;;;;35.93;23.30;101545.66;4970020;28;20134;-81
2022/07/19 10:55:25;;;;;;;3.55;3.17;;;;;;;36.41;23.04;101564.44;4932021;29;20048;-81
2022/07/19 10:58:05;;;;;;;4.28;3.42;;;;;;;36.51;22.55;101562.44;4931008;29;20055;-81
2022/07/19 11:00:42;;;;;;;3.30;3.00;;;;;;;36.30;22.38;101500.13;4930043;29;20486;-80
2022/07/19 11:03:21;;;;;;;6.13;2.78;;;;;;;36.54;22.35;101527.84;4938083;28;20109;-81
2022/07/19 11:05:53;;;;;;;4.85;3.40;;;;;;;36.47;22.44;101505.25;4968589;28;20054;-81
2022/07/19 11:08:41;;;;;;;7.32;3.90;;;;;;;36.63;22.08;101519.78;4967452;28;20070;-81
2022/07/19 11:11:18;;;;;;;5.90;3.13;;;;;;;36.80;22.72;101553.38;4967949;28;20486;-80
2022/07/19 11:13:49;;;;;;;11.10;4.20;;;;;;;36.99;22.40;101545.16;4966933;28;20057;-82
2022/07/19 11:16:17;;;;;;;4.53;3.20;;;;;;;36.11;22.53;101376.44;4967675;28;20046;-80
2022/07/19 11:18:45;;;;;;;6.30;3.88;;;;;;;36.15;22.38;101387.75;4967716;28;20117;-83
2022/07/19 11:21:17;;;;;;;3.85;3.10;;;;;;;36.73;22.27;101467.97;4967413;28;20086;-80
2022/07/19 11:23:46;;;;;;;7.15;3.78;;;;;;;37.35;22.31;101544.81;4966647;28;20051;-81
2022/07/19 11:26:22;;;;;;;7.45;3.88;;;;;;;37.34;22.64;101551.50;4967453;28;20043;-80
2022/07/19 11:28:50;;;;;;;7.40;3.75;;;;;;;37.18;22.71;101496.28;4966429;28;20374;-81
2022/07/19 11:31:20;;;;;;;4.50;3.38;;;;;;;37.45;22.61;101522.53;4967279;28;20050;-81
2022/07/19 11:33:50;;;;;;;3.27;3.00;;;;;;;37.21;22.88;101459.72;4970065;28;20051;-82
2022/07/19 11:36:17;;;;;;;;;;;;;;;37.83;22.60;101531.78;4968845;28;20051;-81